Austin Golding — WDC8113 — position and weather

sailwx.info

Track history (hours):
 
Tides and Currents Weather Stations Pressure Air Temp Water Temp Dewpoint Dewpoint Depression Visibility Wind Speed Wind Dir Waves Ship Positions

Austin Golding

Owner: Golding Barge Line, Inc., Vicksburg, MS. More information available from US FCC via Universal Licensing System and Coast Guard Vessel Documentation Center.

Last reported at 2018-Jun-25 13:25 UTC. Time now 2018-Jun-25 13:42 UTC.
Position N 30°23' W 086°57'.

Length 211 m; draft 2.9 m.

Type: . MMSI: 367081860.

Date/timePositionNaut miles runAvg speedWind from/ knotsBaromVisibWave heightAir tempDewpointWater temp
2018-Jun-25 13:25N 30°23' W 086°57'3 6.5
2018-Jun-25 12:59N 30°24' W 086°54'3 6.1
2018-Jun-25 12:30N 30°24' W 086°50'1 2.3
2018-Jun-25 12:00N 30°24' W 086°49'0 0.7
2018-Jun-25 11:30N 30°24' W 086°48'1 2.6
2018-Jun-25 11:00N 30°24' W 086°47'3 5.9
2018-Jun-25 10:30N 30°24' W 086°44'10 5.3
2018-Jun-25 08:34N 30°25' W 086°32'1 7.5
2018-Jun-25 08:29N 30°25' W 086°31'3 6.9
2018-Jun-25 08:00N 30°26' W 086°27'4 7.2
2018-Jun-25 07:30N 30°26' W 086°23'4 7.2
2018-Jun-25 06:54N 30°26' W 086°18'1 0.0
2018-Jun-23 17:10N 30°27' W 086°18'1 5.7
2018-Jun-23 16:59N 30°26' W 086°19'3 5.8
2018-Jun-23 16:30N 30°26' W 086°22'3 5.9
2018-Jun-23 16:00N 30°26' W 086°25'3 6.0
2018-Jun-23 15:30N 30°26' W 086°29'3 5.8
2018-Jun-23 15:00N 30°25' W 086°32'8 5.4
2018-Jun-23 13:33N 30°24' W 086°41'1 5.6
2018-Jun-23 13:23N 30°24' W 086°42'2 5.5
2018-Jun-23 13:00N 30°24' W 086°45'3 5.6
2018-Jun-23 12:30N 30°24' W 086°48'3 5.7
2018-Jun-23 12:00N 30°24' W 086°51'3 5.8
2018-Jun-23 11:30N 30°24' W 086°54'4 6.0
2018-Jun-23 10:52N 30°23' W 086°59'  
2018-Jun-19 19:21N 30°23' W 086°57'2 6.0
2018-Jun-19 19:00N 30°24' W 086°54'3 6.0
2018-Jun-19 18:30N 30°24' W 086°51'3 6.1
2018-Jun-19 18:00N 30°24' W 086°47'3 5.9
2018-Jun-19 17:30N 30°24' W 086°44'10 6.1
2018-Jun-19 15:56N 30°24' W 086°33'3 8.0
2018-Jun-19 15:30N 30°26' W 086°29'3 6.9
2018-Jun-19 15:00N 30°26' W 086°25'3 6.8
2018-Jun-19 14:30N 30°26' W 086°21'3 6.7
2018-Jun-19 14:00N 30°26' W 086°18'  
2018-Jun-16 21:44N 30°26' W 086°17'1 5.7
2018-Jun-16 21:30N 30°26' W 086°19'3 5.7
2018-Jun-16 21:00N 30°26' W 086°22'3 5.9
2018-Jun-16 20:30N 30°26' W 086°25'3 5.8
2018-Jun-16 20:00N 30°26' W 086°29'3 5.8
2018-Jun-16 19:28N 30°25' W 086°32'8 5.5
2018-Jun-16 18:01N 30°24' W 086°41'0 6.0
2018-Jun-16 18:00N 30°24' W 086°41'3 5.6
2018-Jun-16 17:30N 30°24' W 086°44'3 5.7
2018-Jun-16 17:00N 30°24' W 086°48'3 5.8
2018-Jun-16 16:30N 30°24' W 086°51'3 5.9
2018-Jun-16 16:00N 30°23' W 086°55'4 5.9
2018-Jun-16 15:24N 30°23' W 086°59'  
Track history (hours):
 
Tides and Currents Weather Stations Pressure Air Temp Water Temp Dewpoint Dewpoint Depression Visibility Wind Speed Wind Dir Waves Ship Positions

Austin Golding

Owner: Golding Barge Line, Inc., Vicksburg, MS. More information available from US FCC via Universal Licensing System and Coast Guard Vessel Documentation Center.

Last reported at 2018-Jun-25 13:25 UTC. Time now 2018-Jun-25 13:42 UTC.
Position N 30°23' W 086°57'.

Length 211 m; draft 2.9 m.

Type: . MMSI: 367081860.

Date/timePositionNaut miles runAvg speedWind from/ knotsBaromVisibWave heightAir tempDewpointWater temp
2018-Jun-25 13:25N 30°23' W 086°57'3 6.5
2018-Jun-25 12:59N 30°24' W 086°54'3 6.1
2018-Jun-25 12:30N 30°24' W 086°50'1 2.3
2018-Jun-25 12:00N 30°24' W 086°49'0 0.7
2018-Jun-25 11:30N 30°24' W 086°48'1 2.6
2018-Jun-25 11:00N 30°24' W 086°47'3 5.9
2018-Jun-25 10:30N 30°24' W 086°44'10 5.3
2018-Jun-25 08:34N 30°25' W 086°32'1 7.5
2018-Jun-25 08:29N 30°25' W 086°31'3 6.9
2018-Jun-25 08:00N 30°26' W 086°27'4 7.2
2018-Jun-25 07:30N 30°26' W 086°23'4 7.2
2018-Jun-25 06:54N 30°26' W 086°18'1 0.0
2018-Jun-23 17:10N 30°27' W 086°18'1 5.7
2018-Jun-23 16:59N 30°26' W 086°19'3 5.8
2018-Jun-23 16:30N 30°26' W 086°22'3 5.9
2018-Jun-23 16:00N 30°26' W 086°25'3 6.0
2018-Jun-23 15:30N 30°26' W 086°29'3 5.8
2018-Jun-23 15:00N 30°25' W 086°32'8 5.4
2018-Jun-23 13:33N 30°24' W 086°41'1 5.6
2018-Jun-23 13:23N 30°24' W 086°42'2 5.5
2018-Jun-23 13:00N 30°24' W 086°45'3 5.6
2018-Jun-23 12:30N 30°24' W 086°48'3 5.7
2018-Jun-23 12:00N 30°24' W 086°51'3 5.8
2018-Jun-23 11:30N 30°24' W 086°54'4 6.0
2018-Jun-23 10:52N 30°23' W 086°59'  
2018-Jun-19 19:21N 30°23' W 086°57'2 6.0
2018-Jun-19 19:00N 30°24' W 086°54'3 6.0
2018-Jun-19 18:30N 30°24' W 086°51'3 6.1
2018-Jun-19 18:00N 30°24' W 086°47'3 5.9
2018-Jun-19 17:30N 30°24' W 086°44'10 6.1
2018-Jun-19 15:56N 30°24' W 086°33'3 8.0
2018-Jun-19 15:30N 30°26' W 086°29'3 6.9
2018-Jun-19 15:00N 30°26' W 086°25'3 6.8
2018-Jun-19 14:30N 30°26' W 086°21'3 6.7
2018-Jun-19 14:00N 30°26' W 086°18'  
2018-Jun-16 21:44N 30°26' W 086°17'1 5.7
2018-Jun-16 21:30N 30°26' W 086°19'3 5.7
2018-Jun-16 21:00N 30°26' W 086°22'3 5.9
2018-Jun-16 20:30N 30°26' W 086°25'3 5.8
2018-Jun-16 20:00N 30°26' W 086°29'3 5.8
2018-Jun-16 19:28N 30°25' W 086°32'8 5.5
2018-Jun-16 18:01N 30°24' W 086°41'0 6.0
2018-Jun-16 18:00N 30°24' W 086°41'3 5.6
2018-Jun-16 17:30N 30°24' W 086°44'3 5.7
2018-Jun-16 17:00N 30°24' W 086°48'3 5.8
2018-Jun-16 16:30N 30°24' W 086°51'3 5.9
2018-Jun-16 16:00N 30°23' W 086°55'4 5.9
2018-Jun-16 15:24N 30°23' W 086°59'  

Dump ship's entire track history